<?xml version="1.0" encoding="UTF-8" standalone="no" ?>
<gpx xmlns="http://www.topografix.com/GPX/1/1" xmlns:xsi="http://www.w3.org/2001/XMLSchema-instance" xsi:schemaLocation="http://www.topografix.com/GPX/1/1 http://www.topografix.com/GPX/1/1/gpx.xsd" version="1.1" creator="VisuGPX - https://www.visugpx.com">
  <metadata>
    <name>Marais de Vaux</name>
    <desc><![CDATA[Tour du Marais de Vaux par le circuit court]]></desc>
  </metadata>
  <trk>
    <name><![CDATA[ACTIVE LOG114532]]></name>
    <trkseg>
      <trkpt lat="45.96119" lon="5.58325">
        <ele>764.882</ele>
        <time>2018-07-08T09:47:07Z</time>
      </trkpt>
      <trkpt lat="45.96115" lon="5.58327">
        <ele>766.365</ele>
        <time>2018-07-08T09:47:11Z</time>
      </trkpt>
      <trkpt lat="45.96104" lon="5.58337">
        <ele>767.881</ele>
        <time>2018-07-08T09:47:23Z</time>
      </trkpt>
      <trkpt lat="45.96092" lon="5.58347">
        <ele>769.216</ele>
        <time>2018-07-08T09:47:34Z</time>
      </trkpt>
      <trkpt lat="45.96079" lon="5.58356">
        <ele>769.702</ele>
        <time>2018-07-08T09:47:46Z</time>
      </trkpt>
      <trkpt lat="45.96066" lon="5.58366">
        <ele>770.02</ele>
        <time>2018-07-08T09:47:58Z</time>
      </trkpt>
      <trkpt lat="45.96062" lon="5.5837">
        <ele>769.573</ele>
        <time>2018-07-08T09:48:02Z</time>
      </trkpt>
      <trkpt lat="45.96051" lon="5.58375">
        <ele>770.272</ele>
        <time>2018-07-08T09:48:13Z</time>
      </trkpt>
      <trkpt lat="45.96046" lon="5.58379">
        <ele>769.754</ele>
        <time>2018-07-08T09:48:22Z</time>
      </trkpt>
      <trkpt lat="45.96037" lon="5.58385">
        <ele>770.443</ele>
        <time>2018-07-08T09:49:20Z</time>
      </trkpt>
      <trkpt lat="45.96024" lon="5.58399">
        <ele>770.013</ele>
        <time>2018-07-08T09:49:33Z</time>
      </trkpt>
      <trkpt lat="45.96016" lon="5.58409">
        <ele>769.366</ele>
        <time>2018-07-08T09:49:42Z</time>
      </trkpt>
      <trkpt lat="45.96012" lon="5.58415">
        <ele>769.864</ele>
        <time>2018-07-08T09:49:47Z</time>
      </trkpt>
      <trkpt lat="45.96002" lon="5.5843">
        <ele>770.144</ele>
        <time>2018-07-08T09:50:00Z</time>
      </trkpt>
      <trkpt lat="45.96001" lon="5.58433">
        <ele>770.721</ele>
        <time>2018-07-08T09:50:08Z</time>
      </trkpt>
      <trkpt lat="45.95994" lon="5.58444">
        <ele>770.447</ele>
        <time>2018-07-08T09:50:44Z</time>
      </trkpt>
      <trkpt lat="45.95985" lon="5.58454">
        <ele>770.02</ele>
        <time>2018-07-08T09:50:55Z</time>
      </trkpt>
      <trkpt lat="45.95977" lon="5.5847">
        <ele>770.195</ele>
        <time>2018-07-08T09:51:07Z</time>
      </trkpt>
      <trkpt lat="45.95972" lon="5.58478">
        <ele>770.228</ele>
        <time>2018-07-08T09:51:14Z</time>
      </trkpt>
      <trkpt lat="45.95969" lon="5.58479">
        <ele>770.151</ele>
        <time>2018-07-08T09:51:17Z</time>
      </trkpt>
      <trkpt lat="45.95959" lon="5.5849">
        <ele>770.209</ele>
        <time>2018-07-08T09:51:28Z</time>
      </trkpt>
      <trkpt lat="45.9595" lon="5.58501">
        <ele>769.724</ele>
        <time>2018-07-08T09:51:41Z</time>
      </trkpt>
      <trkpt lat="45.95944" lon="5.58505">
        <ele>770.256</ele>
        <time>2018-07-08T09:51:48Z</time>
      </trkpt>
      <trkpt lat="45.95935" lon="5.58506">
        <ele>770.926</ele>
        <time>2018-07-08T09:51:57Z</time>
      </trkpt>
      <trkpt lat="45.95933" lon="5.58508">
        <ele>771.025</ele>
        <time>2018-07-08T09:52:00Z</time>
      </trkpt>
      <trkpt lat="45.95922" lon="5.58525">
        <ele>770.965</ele>
        <time>2018-07-08T09:52:15Z</time>
      </trkpt>
      <trkpt lat="45.95913" lon="5.58535">
        <ele>770.76</ele>
        <time>2018-07-08T09:52:26Z</time>
      </trkpt>
      <trkpt lat="45.95911" lon="5.58535">
        <ele>771.489</ele>
        <time>2018-07-08T09:52:34Z</time>
      </trkpt>
      <trkpt lat="45.95907" lon="5.5854">
        <ele>771.516</ele>
        <time>2018-07-08T09:52:54Z</time>
      </trkpt>
      <trkpt lat="45.95899" lon="5.58548">
        <ele>771.452</ele>
        <time>2018-07-08T09:53:06Z</time>
      </trkpt>
      <trkpt lat="45.95892" lon="5.58553">
        <ele>771.252</ele>
        <time>2018-07-08T09:53:14Z</time>
      </trkpt>
      <trkpt lat="45.95883" lon="5.58565">
        <ele>771.139</ele>
        <time>2018-07-08T09:53:26Z</time>
      </trkpt>
      <trkpt lat="45.95875" lon="5.58575">
        <ele>771.359</ele>
        <time>2018-07-08T09:53:36Z</time>
      </trkpt>
      <trkpt lat="45.95865" lon="5.58585">
        <ele>771.84</ele>
        <time>2018-07-08T09:53:47Z</time>
      </trkpt>
      <trkpt lat="45.95858" lon="5.5859">
        <ele>772.145</ele>
        <time>2018-07-08T09:53:56Z</time>
      </trkpt>
      <trkpt lat="45.95857" lon="5.58585">
        <ele>772.053</ele>
        <time>2018-07-08T09:55:56Z</time>
      </trkpt>
      <trkpt lat="45.95849" lon="5.58594">
        <ele>772.3</ele>
        <time>2018-07-08T09:56:06Z</time>
      </trkpt>
      <trkpt lat="45.95843" lon="5.58601">
        <ele>772.625</ele>
        <time>2018-07-08T09:56:14Z</time>
      </trkpt>
      <trkpt lat="45.95837" lon="5.58607">
        <ele>772.506</ele>
        <time>2018-07-08T09:56:26Z</time>
      </trkpt>
      <trkpt lat="45.95833" lon="5.58607">
        <ele>772.341</ele>
        <time>2018-07-08T09:56:46Z</time>
      </trkpt>
      <trkpt lat="45.95829" lon="5.5861">
        <ele>771.795</ele>
        <time>2018-07-08T09:57:00Z</time>
      </trkpt>
      <trkpt lat="45.95819" lon="5.58624">
        <ele>772.165</ele>
        <time>2018-07-08T09:57:14Z</time>
      </trkpt>
      <trkpt lat="45.95809" lon="5.58634">
        <ele>771.951</ele>
        <time>2018-07-08T09:57:24Z</time>
      </trkpt>
      <trkpt lat="45.95806" lon="5.58637">
        <ele>771.988</ele>
        <time>2018-07-08T09:58:24Z</time>
      </trkpt>
      <trkpt lat="45.95796" lon="5.58644">
        <ele>772.482</ele>
        <time>2018-07-08T09:58:34Z</time>
      </trkpt>
      <trkpt lat="45.95787" lon="5.58651">
        <ele>772.681</ele>
        <time>2018-07-08T09:58:43Z</time>
      </trkpt>
      <trkpt lat="45.95783" lon="5.5865">
        <ele>772.289</ele>
        <time>2018-07-08T09:58:49Z</time>
      </trkpt>
      <trkpt lat="45.95776" lon="5.58638">
        <ele>773.118</ele>
        <time>2018-07-08T09:58:58Z</time>
      </trkpt>
      <trkpt lat="45.95767" lon="5.58619">
        <ele>774.551</ele>
        <time>2018-07-08T09:59:11Z</time>
      </trkpt>
      <trkpt lat="45.9576" lon="5.58605">
        <ele>776.797</ele>
        <time>2018-07-08T09:59:24Z</time>
      </trkpt>
      <trkpt lat="45.95753" lon="5.58591">
        <ele>779.059</ele>
        <time>2018-07-08T09:59:37Z</time>
      </trkpt>
      <trkpt lat="45.95751" lon="5.58589">
        <ele>779.151</ele>
        <time>2018-07-08T09:59:39Z</time>
      </trkpt>
      <trkpt lat="45.95747" lon="5.58581">
        <ele>780.966</ele>
        <time>2018-07-08T09:59:49Z</time>
      </trkpt>
      <trkpt lat="45.95744" lon="5.58579">
        <ele>781.68</ele>
        <time>2018-07-08T09:59:57Z</time>
      </trkpt>
      <trkpt lat="45.95738" lon="5.58577">
        <ele>784.11</ele>
        <time>2018-07-08T10:00:18Z</time>
      </trkpt>
      <trkpt lat="45.95733" lon="5.58581">
        <ele>783.389</ele>
        <time>2018-07-08T10:00:28Z</time>
      </trkpt>
      <trkpt lat="45.95726" lon="5.58587">
        <ele>783.688</ele>
        <time>2018-07-08T10:00:38Z</time>
      </trkpt>
      <trkpt lat="45.95724" lon="5.5859">
        <ele>783.416</ele>
        <time>2018-07-08T10:00:44Z</time>
      </trkpt>
      <trkpt lat="45.95718" lon="5.58596">
        <ele>783.392</ele>
        <time>2018-07-08T10:00:51Z</time>
      </trkpt>
      <trkpt lat="45.95716" lon="5.58598">
        <ele>783.311</ele>
        <time>2018-07-08T10:00:53Z</time>
      </trkpt>
      <trkpt lat="45.95714" lon="5.58602">
        <ele>782.841</ele>
        <time>2018-07-08T10:01:01Z</time>
      </trkpt>
      <trkpt lat="45.9571" lon="5.58612">
        <ele>782.878</ele>
        <time>2018-07-08T10:01:11Z</time>
      </trkpt>
      <trkpt lat="45.95702" lon="5.5862">
        <ele>782.965</ele>
        <time>2018-07-08T10:01:19Z</time>
      </trkpt>
      <trkpt lat="45.9569" lon="5.58622">
        <ele>783.186</ele>
        <time>2018-07-08T10:01:26Z</time>
      </trkpt>
      <trkpt lat="45.95679" lon="5.58633">
        <ele>783.311</ele>
        <time>2018-07-08T10:01:35Z</time>
      </trkpt>
      <trkpt lat="45.95672" lon="5.58641">
        <ele>783.422</ele>
        <time>2018-07-08T10:01:42Z</time>
      </trkpt>
      <trkpt lat="45.95661" lon="5.58649">
        <ele>783.653</ele>
        <time>2018-07-08T10:01:52Z</time>
      </trkpt>
      <trkpt lat="45.95653" lon="5.58653">
        <ele>784.558</ele>
        <time>2018-07-08T10:02:02Z</time>
      </trkpt>
      <trkpt lat="45.95645" lon="5.5866">
        <ele>785.284</ele>
        <time>2018-07-08T10:02:10Z</time>
      </trkpt>
      <trkpt lat="45.95637" lon="5.58665">
        <ele>785.63</ele>
        <time>2018-07-08T10:02:21Z</time>
      </trkpt>
      <trkpt lat="45.95629" lon="5.58671">
        <ele>786.019</ele>
        <time>2018-07-08T10:02:31Z</time>
      </trkpt>
      <trkpt lat="45.9562" lon="5.58678">
        <ele>785.529</ele>
        <time>2018-07-08T10:02:40Z</time>
      </trkpt>
      <trkpt lat="45.95612" lon="5.58682">
        <ele>785.644</ele>
        <time>2018-07-08T10:02:49Z</time>
      </trkpt>
      <trkpt lat="45.95609" lon="5.58683">
        <ele>785.748</ele>
        <time>2018-07-08T10:02:57Z</time>
      </trkpt>
      <trkpt lat="45.95604" lon="5.58687">
        <ele>785.647</ele>
        <time>2018-07-08T10:03:01Z</time>
      </trkpt>
      <trkpt lat="45.95595" lon="5.58687">
        <ele>785.714</ele>
        <time>2018-07-08T10:03:07Z</time>
      </trkpt>
      <trkpt lat="45.95587" lon="5.5869">
        <ele>786.484</ele>
        <time>2018-07-08T10:03:16Z</time>
      </trkpt>
      <trkpt lat="45.95574" lon="5.58695">
        <ele>787.11</ele>
        <time>2018-07-08T10:03:27Z</time>
      </trkpt>
      <trkpt lat="45.95564" lon="5.58698">
        <ele>787.794</ele>
        <time>2018-07-08T10:03:34Z</time>
      </trkpt>
      <trkpt lat="45.95559" lon="5.58696">
        <ele>788.054</ele>
        <time>2018-07-08T10:03:40Z</time>
      </trkpt>
      <trkpt lat="45.95548" lon="5.58696">
        <ele>789.251</ele>
        <time>2018-07-08T10:03:50Z</time>
      </trkpt>
      <trkpt lat="45.95543" lon="5.58698">
        <ele>789.819</ele>
        <time>2018-07-08T10:03:56Z</time>
      </trkpt>
      <trkpt lat="45.95535" lon="5.58698">
        <ele>790.278</ele>
        <time>2018-07-08T10:04:05Z</time>
      </trkpt>
      <trkpt lat="45.95529" lon="5.58695">
        <ele>790.863</ele>
        <time>2018-07-08T10:04:12Z</time>
      </trkpt>
      <trkpt lat="45.95521" lon="5.58697">
        <ele>791.977</ele>
        <time>2018-07-08T10:04:22Z</time>
      </trkpt>
      <trkpt lat="45.95515" lon="5.58696">
        <ele>791.624</ele>
        <time>2018-07-08T10:04:29Z</time>
      </trkpt>
      <trkpt lat="45.95509" lon="5.58701">
        <ele>792.412</ele>
        <time>2018-07-08T10:04:38Z</time>
      </trkpt>
      <trkpt lat="45.95502" lon="5.58703">
        <ele>792.987</ele>
        <time>2018-07-08T10:04:47Z</time>
      </trkpt>
      <trkpt lat="45.95486" lon="5.58705">
        <ele>794.01</ele>
        <time>2018-07-08T10:05:00Z</time>
      </trkpt>
      <trkpt lat="45.9547" lon="5.58705">
        <ele>794.141</ele>
        <time>2018-07-08T10:05:08Z</time>
      </trkpt>
      <trkpt lat="45.95468" lon="5.58707">
        <ele>794.467</ele>
        <time>2018-07-08T10:05:14Z</time>
      </trkpt>
      <trkpt lat="45.95462" lon="5.58703">
        <ele>795.133</ele>
        <time>2018-07-08T10:05:22Z</time>
      </trkpt>
      <trkpt lat="45.95451" lon="5.58709">
        <ele>795.646</ele>
        <time>2018-07-08T10:05:36Z</time>
      </trkpt>
      <trkpt lat="45.95446" lon="5.58717">
        <ele>796.46</ele>
        <time>2018-07-08T10:05:43Z</time>
      </trkpt>
      <trkpt lat="45.95438" lon="5.58724">
        <ele>796.88</ele>
        <time>2018-07-08T10:05:51Z</time>
      </trkpt>
      <trkpt lat="45.95434" lon="5.58731">
        <ele>797.436</ele>
        <time>2018-07-08T10:06:00Z</time>
      </trkpt>
      <trkpt lat="45.95429" lon="5.58733">
        <ele>797.521</ele>
        <time>2018-07-08T10:06:03Z</time>
      </trkpt>
      <trkpt lat="45.95421" lon="5.58739">
        <ele>797.547</ele>
        <time>2018-07-08T10:06:10Z</time>
      </trkpt>
      <trkpt lat="45.95418" lon="5.58738">
        <ele>798.533</ele>
        <time>2018-07-08T10:06:14Z</time>
      </trkpt>
      <trkpt lat="45.95408" lon="5.58738">
        <ele>799.146</ele>
        <time>2018-07-08T10:06:23Z</time>
      </trkpt>
      <trkpt lat="45.95398" lon="5.58736">
        <ele>799.675</ele>
        <time>2018-07-08T10:06:31Z</time>
      </trkpt>
      <trkpt lat="45.95385" lon="5.58733">
        <ele>799.518</ele>
        <time>2018-07-08T10:06:41Z</time>
      </trkpt>
      <trkpt lat="45.95381" lon="5.58733">
        <ele>799.217</ele>
        <time>2018-07-08T10:06:45Z</time>
      </trkpt>
      <trkpt lat="45.9537" lon="5.58733">
        <ele>799.537</ele>
        <time>2018-07-08T10:06:54Z</time>
      </trkpt>
      <trkpt lat="45.95366" lon="5.58737">
        <ele>799.106</ele>
        <time>2018-07-08T10:07:02Z</time>
      </trkpt>
      <trkpt lat="45.95364" lon="5.58745">
        <ele>799.247</ele>
        <time>2018-07-08T10:07:06Z</time>
      </trkpt>
      <trkpt lat="45.95357" lon="5.58758">
        <ele>797.594</ele>
        <time>2018-07-08T10:07:14Z</time>
      </trkpt>
      <trkpt lat="45.95357" lon="5.58766">
        <ele>796.959</ele>
        <time>2018-07-08T10:07:22Z</time>
      </trkpt>
      <trkpt lat="45.95357" lon="5.58771">
        <ele>796.636</ele>
        <time>2018-07-08T10:07:33Z</time>
      </trkpt>
      <trkpt lat="45.95357" lon="5.58774">
        <ele>796.729</ele>
        <time>2018-07-08T10:08:28Z</time>
      </trkpt>
      <trkpt lat="45.95356" lon="5.58782">
        <ele>795.998</ele>
        <time>2018-07-08T10:08:35Z</time>
      </trkpt>
      <trkpt lat="45.95356" lon="5.58785">
        <ele>795.829</ele>
        <time>2018-07-08T10:08:45Z</time>
      </trkpt>
      <trkpt lat="45.95353" lon="5.58789">
        <ele>795.038</ele>
        <time>2018-07-08T10:08:54Z</time>
      </trkpt>
      <trkpt lat="45.95344" lon="5.58799">
        <ele>794.783</ele>
        <time>2018-07-08T10:09:00Z</time>
      </trkpt>
      <trkpt lat="45.95342" lon="5.58804">
        <ele>794.296</ele>
        <time>2018-07-08T10:09:03Z</time>
      </trkpt>
      <trkpt lat="45.95338" lon="5.58814">
        <ele>794.27</ele>
        <time>2018-07-08T10:09:12Z</time>
      </trkpt>
      <trkpt lat="45.95333" lon="5.58815">
        <ele>792.966</ele>
        <time>2018-07-08T10:09:28Z</time>
      </trkpt>
      <trkpt lat="45.95332" lon="5.58819">
        <ele>793.498</ele>
        <time>2018-07-08T10:10:09Z</time>
      </trkpt>
      <trkpt lat="45.95327" lon="5.58816">
        <ele>793.267</ele>
        <time>2018-07-08T10:10:18Z</time>
      </trkpt>
      <trkpt lat="45.95325" lon="5.58818">
        <ele>793.556</ele>
        <time>2018-07-08T10:10:21Z</time>
      </trkpt>
      <trkpt lat="45.9532" lon="5.58824">
        <ele>793.181</ele>
        <time>2018-07-08T10:10:28Z</time>
      </trkpt>
      <trkpt lat="45.95315" lon="5.58829">
        <ele>792.651</ele>
        <time>2018-07-08T10:10:34Z</time>
      </trkpt>
      <trkpt lat="45.95306" lon="5.58842">
        <ele>792.604</ele>
        <time>2018-07-08T10:10:43Z</time>
      </trkpt>
      <trkpt lat="45.95296" lon="5.58848">
        <ele>792.85</ele>
        <time>2018-07-08T10:10:51Z</time>
      </trkpt>
      <trkpt lat="45.95285" lon="5.58852">
        <ele>791.919</ele>
        <time>2018-07-08T10:11:00Z</time>
      </trkpt>
      <trkpt lat="45.95278" lon="5.58856">
        <ele>791.329</ele>
        <time>2018-07-08T10:11:09Z</time>
      </trkpt>
      <trkpt lat="45.95272" lon="5.58861">
        <ele>790.414</ele>
        <time>2018-07-08T10:11:15Z</time>
      </trkpt>
      <trkpt lat="45.9527" lon="5.58864">
        <ele>790.286</ele>
        <time>2018-07-08T10:11:17Z</time>
      </trkpt>
      <trkpt lat="45.95261" lon="5.58872">
        <ele>790.42</ele>
        <time>2018-07-08T10:11:26Z</time>
      </trkpt>
      <trkpt lat="45.95253" lon="5.58866">
        <ele>790.405</ele>
        <time>2018-07-08T10:11:38Z</time>
      </trkpt>
      <trkpt lat="45.95245" lon="5.58874">
        <ele>790.529</ele>
        <time>2018-07-08T10:11:46Z</time>
      </trkpt>
      <trkpt lat="45.95237" lon="5.58879">
        <ele>790.261</ele>
        <time>2018-07-08T10:11:53Z</time>
      </trkpt>
      <trkpt lat="45.95229" lon="5.58879">
        <ele>790.131</ele>
        <time>2018-07-08T10:12:00Z</time>
      </trkpt>
      <trkpt lat="45.95223" lon="5.58877">
        <ele>789.723</ele>
        <time>2018-07-08T10:12:13Z</time>
      </trkpt>
      <trkpt lat="45.9522" lon="5.58876">
        <ele>789.511</ele>
        <time>2018-07-08T10:13:07Z</time>
      </trkpt>
      <trkpt lat="45.95218" lon="5.58878">
        <ele>789.418</ele>
        <time>2018-07-08T10:13:16Z</time>
      </trkpt>
      <trkpt lat="45.95212" lon="5.5888">
        <ele>788.57</ele>
        <time>2018-07-08T10:13:42Z</time>
      </trkpt>
      <trkpt lat="45.9521" lon="5.58881">
        <ele>788.611</ele>
        <time>2018-07-08T10:13:44Z</time>
      </trkpt>
      <trkpt lat="45.95201" lon="5.58885">
        <ele>788.047</ele>
        <time>2018-07-08T10:13:52Z</time>
      </trkpt>
      <trkpt lat="45.95198" lon="5.58889">
        <ele>787.994</ele>
        <time>2018-07-08T10:13:58Z</time>
      </trkpt>
      <trkpt lat="45.95194" lon="5.58893">
        <ele>787.352</ele>
        <time>2018-07-08T10:14:04Z</time>
      </trkpt>
      <trkpt lat="45.95188" lon="5.58901">
        <ele>787.11</ele>
        <time>2018-07-08T10:14:11Z</time>
      </trkpt>
      <trkpt lat="45.95184" lon="5.58903">
        <ele>787.033</ele>
        <time>2018-07-08T10:14:18Z</time>
      </trkpt>
      <trkpt lat="45.95182" lon="5.58906">
        <ele>786.257</ele>
        <time>2018-07-08T10:14:26Z</time>
      </trkpt>
      <trkpt lat="45.95174" lon="5.58912">
        <ele>785.948</ele>
        <time>2018-07-08T10:14:32Z</time>
      </trkpt>
      <trkpt lat="45.95168" lon="5.58917">
        <ele>785.211</ele>
        <time>2018-07-08T10:14:39Z</time>
      </trkpt>
      <trkpt lat="45.95161" lon="5.58919">
        <ele>784.652</ele>
        <time>2018-07-08T10:14:45Z</time>
      </trkpt>
      <trkpt lat="45.95156" lon="5.58924">
        <ele>784.097</ele>
        <time>2018-07-08T10:14:51Z</time>
      </trkpt>
      <trkpt lat="45.95149" lon="5.5893">
        <ele>783.695</ele>
        <time>2018-07-08T10:15:00Z</time>
      </trkpt>
      <trkpt lat="45.95141" lon="5.58935">
        <ele>783.183</ele>
        <time>2018-07-08T10:15:07Z</time>
      </trkpt>
      <trkpt lat="45.95126" lon="5.58952">
        <ele>782.193</ele>
        <time>2018-07-08T10:15:18Z</time>
      </trkpt>
      <trkpt lat="45.95118" lon="5.58961">
        <ele>781.999</ele>
        <time>2018-07-08T10:15:26Z</time>
      </trkpt>
      <trkpt lat="45.95106" lon="5.58969">
        <ele>781.026</ele>
        <time>2018-07-08T10:15:37Z</time>
      </trkpt>
      <trkpt lat="45.95103" lon="5.5897">
        <ele>781.117</ele>
        <time>2018-07-08T10:15:43Z</time>
      </trkpt>
      <trkpt lat="45.95099" lon="5.58973">
        <ele>781.074</ele>
        <time>2018-07-08T10:15:46Z</time>
      </trkpt>
      <trkpt lat="45.95089" lon="5.58979">
        <ele>780.669</ele>
        <time>2018-07-08T10:15:55Z</time>
      </trkpt>
      <trkpt lat="45.9508" lon="5.58983">
        <ele>780.737</ele>
        <time>2018-07-08T10:16:02Z</time>
      </trkpt>
      <trkpt lat="45.95072" lon="5.5899">
        <ele>779.759</ele>
        <time>2018-07-08T10:16:10Z</time>
      </trkpt>
      <trkpt lat="45.95067" lon="5.58992">
        <ele>778.948</ele>
        <time>2018-07-08T10:16:15Z</time>
      </trkpt>
      <trkpt lat="45.95059" lon="5.58999">
        <ele>778.167</ele>
        <time>2018-07-08T10:16:22Z</time>
      </trkpt>
      <trkpt lat="45.95051" lon="5.59009">
        <ele>777.096</ele>
        <time>2018-07-08T10:16:30Z</time>
      </trkpt>
      <trkpt lat="45.95044" lon="5.59018">
        <ele>776.345</ele>
        <time>2018-07-08T10:16:36Z</time>
      </trkpt>
      <trkpt lat="45.95036" lon="5.59029">
        <ele>775.543</ele>
        <time>2018-07-08T10:16:44Z</time>
      </trkpt>
      <trkpt lat="45.95034" lon="5.59039">
        <ele>775.096</ele>
        <time>2018-07-08T10:16:52Z</time>
      </trkpt>
      <trkpt lat="45.95038" lon="5.59043">
        <ele>774.824</ele>
        <time>2018-07-08T10:17:19Z</time>
      </trkpt>
      <trkpt lat="45.95039" lon="5.59045">
        <ele>773.908</ele>
        <time>2018-07-08T10:17:21Z</time>
      </trkpt>
      <trkpt lat="45.95042" lon="5.59049">
        <ele>773.028</ele>
        <time>2018-07-08T10:18:03Z</time>
      </trkpt>
      <trkpt lat="45.95044" lon="5.59062">
        <ele>772.234</ele>
        <time>2018-07-08T10:19:07Z</time>
      </trkpt>
      <trkpt lat="45.95044" lon="5.59065">
        <ele>771.773</ele>
        <time>2018-07-08T10:19:16Z</time>
      </trkpt>
      <trkpt lat="45.95047" lon="5.59073">
        <ele>772.301</ele>
        <time>2018-07-08T10:19:27Z</time>
      </trkpt>
      <trkpt lat="45.95047" lon="5.59075">
        <ele>772.021</ele>
        <time>2018-07-08T10:20:24Z</time>
      </trkpt>
      <trkpt lat="45.9505" lon="5.59081">
        <ele>772.067</ele>
        <time>2018-07-08T10:21:05Z</time>
      </trkpt>
      <trkpt lat="45.95051" lon="5.59084">
        <ele>771.562</ele>
        <time>2018-07-08T10:21:26Z</time>
      </trkpt>
      <trkpt lat="45.95051" lon="5.59089">
        <ele>771.143</ele>
        <time>2018-07-08T10:21:39Z</time>
      </trkpt>
      <trkpt lat="45.95054" lon="5.59094">
        <ele>771.353</ele>
        <time>2018-07-08T10:21:48Z</time>
      </trkpt>
      <trkpt lat="45.95057" lon="5.59105">
        <ele>771.443</ele>
        <time>2018-07-08T10:21:56Z</time>
      </trkpt>
      <trkpt lat="45.95059" lon="5.59111">
        <ele>771.419</ele>
        <time>2018-07-08T10:22:16Z</time>
      </trkpt>
      <trkpt lat="45.95062" lon="5.59113">
        <ele>771.445</ele>
        <time>2018-07-08T10:22:23Z</time>
      </trkpt>
      <trkpt lat="45.95062" lon="5.59117">
        <ele>771.622</ele>
        <time>2018-07-08T10:22:55Z</time>
      </trkpt>
      <trkpt lat="45.95063" lon="5.59121">
        <ele>771.552</ele>
        <time>2018-07-08T10:23:04Z</time>
      </trkpt>
      <trkpt lat="45.95063" lon="5.59125">
        <ele>771.101</ele>
        <time>2018-07-08T10:23:32Z</time>
      </trkpt>
      <trkpt lat="45.95065" lon="5.59139">
        <ele>770.682</ele>
        <time>2018-07-08T10:23:44Z</time>
      </trkpt>
      <trkpt lat="45.9507" lon="5.59152">
        <ele>771.225</ele>
        <time>2018-07-08T10:24:20Z</time>
      </trkpt>
      <trkpt lat="45.95073" lon="5.59163">
        <ele>770.861</ele>
        <time>2018-07-08T10:24:28Z</time>
      </trkpt>
      <trkpt lat="45.95073" lon="5.59169">
        <ele>770.176</ele>
        <time>2018-07-08T10:24:37Z</time>
      </trkpt>
      <trkpt lat="45.95075" lon="5.59172">
        <ele>769.003</ele>
        <time>2018-07-08T10:25:52Z</time>
      </trkpt>
      <trkpt lat="45.95077" lon="5.59178">
        <ele>769.873</ele>
        <time>2018-07-08T10:26:35Z</time>
      </trkpt>
      <trkpt lat="45.95081" lon="5.59191">
        <ele>769.855</ele>
        <time>2018-07-08T10:26:45Z</time>
      </trkpt>
      <trkpt lat="45.95082" lon="5.59197">
        <ele>769.406</ele>
        <time>2018-07-08T10:26:59Z</time>
      </trkpt>
      <trkpt lat="45.95088" lon="5.59216">
        <ele>769.522</ele>
        <time>2018-07-08T10:27:11Z</time>
      </trkpt>
      <trkpt lat="45.95091" lon="5.59227">
        <ele>768.479</ele>
        <time>2018-07-08T10:27:21Z</time>
      </trkpt>
      <trkpt lat="45.95093" lon="5.59233">
        <ele>769.555</ele>
        <time>2018-07-08T10:27:35Z</time>
      </trkpt>
      <trkpt lat="45.95099" lon="5.59246">
        <ele>768.865</ele>
        <time>2018-07-08T10:27:45Z</time>
      </trkpt>
      <trkpt lat="45.95105" lon="5.59246">
        <ele>768.806</ele>
        <time>2018-07-08T10:27:52Z</time>
      </trkpt>
      <trkpt lat="45.95108" lon="5.59243">
        <ele>768.907</ele>
        <time>2018-07-08T10:27:55Z</time>
      </trkpt>
      <trkpt lat="45.95118" lon="5.59241">
        <ele>768.312</ele>
        <time>2018-07-08T10:28:05Z</time>
      </trkpt>
      <trkpt lat="45.9512" lon="5.59241">
        <ele>768.272</ele>
        <time>2018-07-08T10:28:16Z</time>
      </trkpt>
      <trkpt lat="45.95131" lon="5.59234">
        <ele>768.655</ele>
        <time>2018-07-08T10:28:26Z</time>
      </trkpt>
      <trkpt lat="45.95133" lon="5.59235">
        <ele>768.262</ele>
        <time>2018-07-08T10:28:35Z</time>
      </trkpt>
      <trkpt lat="45.95138" lon="5.59233">
        <ele>768.261</ele>
        <time>2018-07-08T10:29:44Z</time>
      </trkpt>
      <trkpt lat="45.95146" lon="5.59228">
        <ele>767.71</ele>
        <time>2018-07-08T10:30:16Z</time>
      </trkpt>
      <trkpt lat="45.95162" lon="5.59219">
        <ele>768.15</ele>
        <time>2018-07-08T10:30:29Z</time>
      </trkpt>
      <trkpt lat="45.95173" lon="5.59213">
        <ele>767.036</ele>
        <time>2018-07-08T10:30:39Z</time>
      </trkpt>
      <trkpt lat="45.95182" lon="5.5921">
        <ele>767.667</ele>
        <time>2018-07-08T10:30:48Z</time>
      </trkpt>
      <trkpt lat="45.95195" lon="5.59205">
        <ele>767.342</ele>
        <time>2018-07-08T10:31:00Z</time>
      </trkpt>
      <trkpt lat="45.95202" lon="5.592">
        <ele>767.072</ele>
        <time>2018-07-08T10:31:09Z</time>
      </trkpt>
      <trkpt lat="45.95207" lon="5.59197">
        <ele>767.889</ele>
        <time>2018-07-08T10:31:14Z</time>
      </trkpt>
      <trkpt lat="45.95215" lon="5.59194">
        <ele>767.766</ele>
        <time>2018-07-08T10:31:25Z</time>
      </trkpt>
      <trkpt lat="45.95216" lon="5.59191">
        <ele>767.127</ele>
        <time>2018-07-08T10:31:47Z</time>
      </trkpt>
      <trkpt lat="45.95221" lon="5.59189">
        <ele>767.149</ele>
        <time>2018-07-08T10:31:51Z</time>
      </trkpt>
      <trkpt lat="45.95236" lon="5.5918">
        <ele>767.326</ele>
        <time>2018-07-08T10:32:04Z</time>
      </trkpt>
      <trkpt lat="45.95251" lon="5.59176">
        <ele>766.72</ele>
        <time>2018-07-08T10:32:17Z</time>
      </trkpt>
      <trkpt lat="45.95253" lon="5.59174">
        <ele>766.22</ele>
        <time>2018-07-08T10:32:19Z</time>
      </trkpt>
      <trkpt lat="45.9526" lon="5.59175">
        <ele>766.42</ele>
        <time>2018-07-08T10:33:11Z</time>
      </trkpt>
      <trkpt lat="45.95263" lon="5.59178">
        <ele>766.082</ele>
        <time>2018-07-08T10:34:19Z</time>
      </trkpt>
      <trkpt lat="45.95271" lon="5.59184">
        <ele>765.917</ele>
        <time>2018-07-08T10:34:29Z</time>
      </trkpt>
      <trkpt lat="45.95277" lon="5.5919">
        <ele>766.22</ele>
        <time>2018-07-08T10:34:37Z</time>
      </trkpt>
      <trkpt lat="45.95279" lon="5.59191">
        <ele>765.791</ele>
        <time>2018-07-08T10:34:46Z</time>
      </trkpt>
      <trkpt lat="45.95282" lon="5.59193">
        <ele>765.674</ele>
        <time>2018-07-08T10:34:55Z</time>
      </trkpt>
      <trkpt lat="45.95288" lon="5.59202">
        <ele>766.066</ele>
        <time>2018-07-08T10:35:07Z</time>
      </trkpt>
      <trkpt lat="45.9529" lon="5.59206">
        <ele>765.62</ele>
        <time>2018-07-08T10:35:18Z</time>
      </trkpt>
      <trkpt lat="45.95294" lon="5.59212">
        <ele>765.79</ele>
        <time>2018-07-08T10:35:29Z</time>
      </trkpt>
      <trkpt lat="45.95295" lon="5.59218">
        <ele>765.944</ele>
        <time>2018-07-08T10:36:02Z</time>
      </trkpt>
      <trkpt lat="45.95297" lon="5.5922">
        <ele>766.115</ele>
        <time>2018-07-08T10:36:17Z</time>
      </trkpt>
      <trkpt lat="45.95301" lon="5.59229">
        <ele>765.679</ele>
        <time>2018-07-08T10:36:28Z</time>
      </trkpt>
      <trkpt lat="45.95306" lon="5.59233">
        <ele>766.19</ele>
        <time>2018-07-08T10:37:01Z</time>
      </trkpt>
      <trkpt lat="45.95306" lon="5.59235">
        <ele>766.136</ele>
        <time>2018-07-08T10:37:10Z</time>
      </trkpt>
      <trkpt lat="45.95308" lon="5.5924">
        <ele>765.791</ele>
        <time>2018-07-08T10:37:28Z</time>
      </trkpt>
      <trkpt lat="45.95308" lon="5.59243">
        <ele>765.857</ele>
        <time>2018-07-08T10:37:36Z</time>
      </trkpt>
      <trkpt lat="45.9531" lon="5.59246">
        <ele>765.657</ele>
        <time>2018-07-08T10:38:11Z</time>
      </trkpt>
      <trkpt lat="45.95314" lon="5.5925">
        <ele>765.56</ele>
        <time>2018-07-08T10:38:39Z</time>
      </trkpt>
      <trkpt lat="45.95318" lon="5.59258">
        <ele>765.352</ele>
        <time>2018-07-08T10:38:47Z</time>
      </trkpt>
      <trkpt lat="45.95325" lon="5.59266">
        <ele>765.328</ele>
        <time>2018-07-08T10:39:00Z</time>
      </trkpt>
      <trkpt lat="45.95327" lon="5.59268">
        <ele>765.387</ele>
        <time>2018-07-08T10:39:35Z</time>
      </trkpt>
      <trkpt lat="45.9533" lon="5.59267">
        <ele>765.055</ele>
        <time>2018-07-08T10:39:51Z</time>
      </trkpt>
      <trkpt lat="45.95339" lon="5.59265">
        <ele>765.628</ele>
        <time>2018-07-08T10:40:04Z</time>
      </trkpt>
      <trkpt lat="45.95345" lon="5.59267">
        <ele>765.387</ele>
        <time>2018-07-08T10:40:14Z</time>
      </trkpt>
      <trkpt lat="45.9535" lon="5.5927">
        <ele>765.231</ele>
        <time>2018-07-08T10:40:23Z</time>
      </trkpt>
      <trkpt lat="45.95357" lon="5.59265">
        <ele>765.437</ele>
        <time>2018-07-08T10:40:30Z</time>
      </trkpt>
      <trkpt lat="45.95366" lon="5.59261">
        <ele>765.28</ele>
        <time>2018-07-08T10:40:40Z</time>
      </trkpt>
      <trkpt lat="45.95376" lon="5.59262">
        <ele>765.32</ele>
        <time>2018-07-08T10:40:52Z</time>
      </trkpt>
      <trkpt lat="45.95378" lon="5.59262">
        <ele>764.89</ele>
        <time>2018-07-08T10:41:07Z</time>
      </trkpt>
      <trkpt lat="45.95381" lon="5.59261">
        <ele>765.382</ele>
        <time>2018-07-08T10:41:15Z</time>
      </trkpt>
      <trkpt lat="45.95385" lon="5.59261">
        <ele>764.907</ele>
        <time>2018-07-08T10:41:24Z</time>
      </trkpt>
      <trkpt lat="45.95389" lon="5.59259">
        <ele>765.117</ele>
        <time>2018-07-08T10:41:34Z</time>
      </trkpt>
      <trkpt lat="45.95396" lon="5.59257">
        <ele>765.38</ele>
        <time>2018-07-08T10:41:43Z</time>
      </trkpt>
      <trkpt lat="45.954" lon="5.59255">
        <ele>765.464</ele>
        <time>2018-07-08T10:41:52Z</time>
      </trkpt>
      <trkpt lat="45.9541" lon="5.5925">
        <ele>765.307</ele>
        <time>2018-07-08T10:42:06Z</time>
      </trkpt>
      <trkpt lat="45.95415" lon="5.59249">
        <ele>765.217</ele>
        <time>2018-07-08T10:42:16Z</time>
      </trkpt>
      <trkpt lat="45.95418" lon="5.5925">
        <ele>765.356</ele>
        <time>2018-07-08T10:42:24Z</time>
      </trkpt>
      <trkpt lat="45.95423" lon="5.59252">
        <ele>765.373</ele>
        <time>2018-07-08T10:42:32Z</time>
      </trkpt>
      <trkpt lat="45.95426" lon="5.5925">
        <ele>765.186</ele>
        <time>2018-07-08T10:43:18Z</time>
      </trkpt>
      <trkpt lat="45.95428" lon="5.59248">
        <ele>765.156</ele>
        <time>2018-07-08T10:43:33Z</time>
      </trkpt>
      <trkpt lat="45.95434" lon="5.59248">
        <ele>765.415</ele>
        <time>2018-07-08T10:43:51Z</time>
      </trkpt>
      <trkpt lat="45.95438" lon="5.59248">
        <ele>764.864</ele>
        <time>2018-07-08T10:43:58Z</time>
      </trkpt>
      <trkpt lat="45.95439" lon="5.5925">
        <ele>764.805</ele>
        <time>2018-07-08T10:44:09Z</time>
      </trkpt>
      <trkpt lat="45.95441" lon="5.5925">
        <ele>764.467</ele>
        <time>2018-07-08T10:44:26Z</time>
      </trkpt>
      <trkpt lat="45.95443" lon="5.59253">
        <ele>764.59</ele>
        <time>2018-07-08T10:44:37Z</time>
      </trkpt>
      <trkpt lat="45.95447" lon="5.59256">
        <ele>764.73</ele>
        <time>2018-07-08T10:44:49Z</time>
      </trkpt>
      <trkpt lat="45.95452" lon="5.59263">
        <ele>764.814</ele>
        <time>2018-07-08T10:44:57Z</time>
      </trkpt>
      <trkpt lat="45.95457" lon="5.59263">
        <ele>764.804</ele>
        <time>2018-07-08T10:45:02Z</time>
      </trkpt>
      <trkpt lat="45.95461" lon="5.59271">
        <ele>765.126</ele>
        <time>2018-07-08T10:45:11Z</time>
      </trkpt>
      <trkpt lat="45.95462" lon="5.59274">
        <ele>764.564</ele>
        <time>2018-07-08T10:45:22Z</time>
      </trkpt>
      <trkpt lat="45.95466" lon="5.59283">
        <ele>764.896</ele>
        <time>2018-07-08T10:45:44Z</time>
      </trkpt>
      <trkpt lat="45.9547" lon="5.59288">
        <ele>764.762</ele>
        <time>2018-07-08T10:45:51Z</time>
      </trkpt>
      <trkpt lat="45.95474" lon="5.59304">
        <ele>765.12</ele>
        <time>2018-07-08T10:46:02Z</time>
      </trkpt>
      <trkpt lat="45.95478" lon="5.59314">
        <ele>764.965</ele>
        <time>2018-07-08T10:46:10Z</time>
      </trkpt>
      <trkpt lat="45.95482" lon="5.59324">
        <ele>764.972</ele>
        <time>2018-07-08T10:46:19Z</time>
      </trkpt>
      <trkpt lat="45.95485" lon="5.59329">
        <ele>765.443</ele>
        <time>2018-07-08T10:46:34Z</time>
      </trkpt>
      <trkpt lat="45.95489" lon="5.5934">
        <ele>765.156</ele>
        <time>2018-07-08T10:46:45Z</time>
      </trkpt>
      <trkpt lat="45.95492" lon="5.59347">
        <ele>765.294</ele>
        <time>2018-07-08T10:46:52Z</time>
      </trkpt>
      <trkpt lat="45.95493" lon="5.59354">
        <ele>765.199</ele>
        <time>2018-07-08T10:47:00Z</time>
      </trkpt>
      <trkpt lat="45.95496" lon="5.59365">
        <ele>765.867</ele>
        <time>2018-07-08T10:47:09Z</time>
      </trkpt>
      <trkpt lat="45.95497" lon="5.59369">
        <ele>765.426</ele>
        <time>2018-07-08T10:47:13Z</time>
      </trkpt>
      <trkpt lat="45.95494" lon="5.59383">
        <ele>765.523</ele>
        <time>2018-07-08T10:47:24Z</time>
      </trkpt>
      <trkpt lat="45.95494" lon="5.59387">
        <ele>765.869</ele>
        <time>2018-07-08T10:47:30Z</time>
      </trkpt>
      <trkpt lat="45.95496" lon="5.5939">
        <ele>765.638</ele>
        <time>2018-07-08T10:47:45Z</time>
      </trkpt>
      <trkpt lat="45.95499" lon="5.5939">
        <ele>765.742</ele>
        <time>2018-07-08T10:47:52Z</time>
      </trkpt>
      <trkpt lat="45.955" lon="5.59395">
        <ele>765.896</ele>
        <time>2018-07-08T10:48:04Z</time>
      </trkpt>
      <trkpt lat="45.955" lon="5.59395">
        <ele>766.034</ele>
        <time>2018-07-08T10:48:44Z</time>
      </trkpt>
      <trkpt lat="45.95503" lon="5.59397">
        <ele>766.381</ele>
        <time>2018-07-08T10:48:53Z</time>
      </trkpt>
      <trkpt lat="45.95513" lon="5.59398">
        <ele>766.368</ele>
        <time>2018-07-08T10:49:08Z</time>
      </trkpt>
      <trkpt lat="45.95522" lon="5.59401">
        <ele>766.345</ele>
        <time>2018-07-08T10:49:20Z</time>
      </trkpt>
      <trkpt lat="45.95529" lon="5.59404">
        <ele>766.7</ele>
        <time>2018-07-08T10:49:30Z</time>
      </trkpt>
      <trkpt lat="45.95532" lon="5.59403">
        <ele>765.868</ele>
        <time>2018-07-08T10:49:33Z</time>
      </trkpt>
      <trkpt lat="45.9554" lon="5.59403">
        <ele>766.317</ele>
        <time>2018-07-08T10:49:44Z</time>
      </trkpt>
      <trkpt lat="45.95544" lon="5.59406">
        <ele>766.212</ele>
        <time>2018-07-08T10:49:53Z</time>
      </trkpt>
      <trkpt lat="45.95547" lon="5.5941">
        <ele>766.192</ele>
        <time>2018-07-08T10:50:50Z</time>
      </trkpt>
      <trkpt lat="45.95551" lon="5.59414">
        <ele>766.43</ele>
        <time>2018-07-08T10:51:11Z</time>
      </trkpt>
      <trkpt lat="45.95559" lon="5.59421">
        <ele>766.964</ele>
        <time>2018-07-08T10:51:21Z</time>
      </trkpt>
      <trkpt lat="45.95563" lon="5.59427">
        <ele>766.646</ele>
        <time>2018-07-08T10:51:29Z</time>
      </trkpt>
      <trkpt lat="45.95569" lon="5.59435">
        <ele>766.958</ele>
        <time>2018-07-08T10:51:38Z</time>
      </trkpt>
      <trkpt lat="45.95575" lon="5.59445">
        <ele>766.939</ele>
        <time>2018-07-08T10:51:48Z</time>
      </trkpt>
      <trkpt lat="45.95584" lon="5.59452">
        <ele>767.311</ele>
        <time>2018-07-08T10:51:58Z</time>
      </trkpt>
      <trkpt lat="45.95592" lon="5.59466">
        <ele>766.949</ele>
        <time>2018-07-08T10:52:11Z</time>
      </trkpt>
      <trkpt lat="45.95601" lon="5.5948">
        <ele>767.172</ele>
        <time>2018-07-08T10:52:24Z</time>
      </trkpt>
      <trkpt lat="45.95607" lon="5.59486">
        <ele>767.374</ele>
        <time>2018-07-08T10:52:32Z</time>
      </trkpt>
      <trkpt lat="45.95617" lon="5.59498">
        <ele>766.887</ele>
        <time>2018-07-08T10:52:44Z</time>
      </trkpt>
      <trkpt lat="45.95625" lon="5.5951">
        <ele>767.931</ele>
        <time>2018-07-08T10:52:55Z</time>
      </trkpt>
      <trkpt lat="45.95627" lon="5.59513">
        <ele>767.728</ele>
        <time>2018-07-08T10:53:01Z</time>
      </trkpt>
      <trkpt lat="45.95628" lon="5.59516">
        <ele>767.442</ele>
        <time>2018-07-08T10:53:03Z</time>
      </trkpt>
      <trkpt lat="45.95635" lon="5.59534">
        <ele>767.928</ele>
        <time>2018-07-08T10:53:16Z</time>
      </trkpt>
      <trkpt lat="45.95641" lon="5.59543">
        <ele>768.578</ele>
        <time>2018-07-08T10:53:26Z</time>
      </trkpt>
      <trkpt lat="45.95649" lon="5.59547">
        <ele>768.752</ele>
        <time>2018-07-08T10:53:38Z</time>
      </trkpt>
      <trkpt lat="45.95651" lon="5.59548">
        <ele>768.779</ele>
        <time>2018-07-08T10:53:40Z</time>
      </trkpt>
      <trkpt lat="45.95655" lon="5.59551">
        <ele>768.668</ele>
        <time>2018-07-08T10:53:47Z</time>
      </trkpt>
      <trkpt lat="45.95658" lon="5.59558">
        <ele>769.047</ele>
        <time>2018-07-08T10:54:03Z</time>
      </trkpt>
      <trkpt lat="45.95659" lon="5.59562">
        <ele>768.854</ele>
        <time>2018-07-08T10:54:06Z</time>
      </trkpt>
      <trkpt lat="45.95661" lon="5.59573">
        <ele>770.305</ele>
        <time>2018-07-08T10:54:16Z</time>
      </trkpt>
      <trkpt lat="45.95665" lon="5.59586">
        <ele>771.543</ele>
        <time>2018-07-08T10:54:26Z</time>
      </trkpt>
      <trkpt lat="45.95669" lon="5.596">
        <ele>772.034</ele>
        <time>2018-07-08T10:54:37Z</time>
      </trkpt>
      <trkpt lat="45.95674" lon="5.59614">
        <ele>772.656</ele>
        <time>2018-07-08T10:54:47Z</time>
      </trkpt>
      <trkpt lat="45.95678" lon="5.59625">
        <ele>773.84</ele>
        <time>2018-07-08T10:54:56Z</time>
      </trkpt>
      <trkpt lat="45.95684" lon="5.59628">
        <ele>774.249</ele>
        <time>2018-07-08T10:55:07Z</time>
      </trkpt>
      <trkpt lat="45.95685" lon="5.59642">
        <ele>775.289</ele>
        <time>2018-07-08T10:55:37Z</time>
      </trkpt>
      <trkpt lat="45.95684" lon="5.59647">
        <ele>776.104</ele>
        <time>2018-07-08T10:55:42Z</time>
      </trkpt>
      <trkpt lat="45.95687" lon="5.59646">
        <ele>775.824</ele>
        <time>2018-07-08T10:55:46Z</time>
      </trkpt>
      <trkpt lat="45.95695" lon="5.59641">
        <ele>775.178</ele>
        <time>2018-07-08T10:55:51Z</time>
      </trkpt>
      <trkpt lat="45.95702" lon="5.59631">
        <ele>774.146</ele>
        <time>2018-07-08T10:56:07Z</time>
      </trkpt>
      <trkpt lat="45.95705" lon="5.59628">
        <ele>773.159</ele>
        <time>2018-07-08T10:56:10Z</time>
      </trkpt>
      <trkpt lat="45.95715" lon="5.59623">
        <ele>773.56</ele>
        <time>2018-07-08T10:56:21Z</time>
      </trkpt>
      <trkpt lat="45.95723" lon="5.59617">
        <ele>773.033</ele>
        <time>2018-07-08T10:56:31Z</time>
      </trkpt>
      <trkpt lat="45.95731" lon="5.5961">
        <ele>773.195</ele>
        <time>2018-07-08T10:56:42Z</time>
      </trkpt>
      <trkpt lat="45.95737" lon="5.59605">
        <ele>772.85</ele>
        <time>2018-07-08T10:56:51Z</time>
      </trkpt>
      <trkpt lat="45.95745" lon="5.59601">
        <ele>772.961</ele>
        <time>2018-07-08T10:56:59Z</time>
      </trkpt>
      <trkpt lat="45.95754" lon="5.59599">
        <ele>772.744</ele>
        <time>2018-07-08T10:57:08Z</time>
      </trkpt>
      <trkpt lat="45.9576" lon="5.59594">
        <ele>773.407</ele>
        <time>2018-07-08T10:57:15Z</time>
      </trkpt>
      <trkpt lat="45.95768" lon="5.59587">
        <ele>772.876</ele>
        <time>2018-07-08T10:57:23Z</time>
      </trkpt>
      <trkpt lat="45.95771" lon="5.59585">
        <ele>772.984</ele>
        <time>2018-07-08T10:57:29Z</time>
      </trkpt>
      <trkpt lat="45.95775" lon="5.59582">
        <ele>773.424</ele>
        <time>2018-07-08T10:57:37Z</time>
      </trkpt>
      <trkpt lat="45.95781" lon="5.59575">
        <ele>773.137</ele>
        <time>2018-07-08T10:57:44Z</time>
      </trkpt>
      <trkpt lat="45.95787" lon="5.59567">
        <ele>772.418</ele>
        <time>2018-07-08T10:57:49Z</time>
      </trkpt>
      <trkpt lat="45.95794" lon="5.59559">
        <ele>772.326</ele>
        <time>2018-07-08T10:57:59Z</time>
      </trkpt>
      <trkpt lat="45.95796" lon="5.59555">
        <ele>772.245</ele>
        <time>2018-07-08T10:58:08Z</time>
      </trkpt>
      <trkpt lat="45.95799" lon="5.59553">
        <ele>772.538</ele>
        <time>2018-07-08T10:58:32Z</time>
      </trkpt>
      <trkpt lat="45.95804" lon="5.59545">
        <ele>772.09</ele>
        <time>2018-07-08T10:58:40Z</time>
      </trkpt>
      <trkpt lat="45.95813" lon="5.59537">
        <ele>772.251</ele>
        <time>2018-07-08T10:58:49Z</time>
      </trkpt>
      <trkpt lat="45.9582" lon="5.59532">
        <ele>773.141</ele>
        <time>2018-07-08T10:58:57Z</time>
      </trkpt>
      <trkpt lat="45.95826" lon="5.59528">
        <ele>772.703</ele>
        <time>2018-07-08T10:59:05Z</time>
      </trkpt>
      <trkpt lat="45.95828" lon="5.59528">
        <ele>773.14</ele>
        <time>2018-07-08T10:59:10Z</time>
      </trkpt>
      <trkpt lat="45.95828" lon="5.59525">
        <ele>772.769</ele>
        <time>2018-07-08T10:59:39Z</time>
      </trkpt>
      <trkpt lat="45.95829" lon="5.59522">
        <ele>772.511</ele>
        <time>2018-07-08T11:00:02Z</time>
      </trkpt>
      <trkpt lat="45.95833" lon="5.59517">
        <ele>772.491</ele>
        <time>2018-07-08T11:00:23Z</time>
      </trkpt>
      <trkpt lat="45.95835" lon="5.59515">
        <ele>772.237</ele>
        <time>2018-07-08T11:00:30Z</time>
      </trkpt>
      <trkpt lat="45.95838" lon="5.5951">
        <ele>772.341</ele>
        <time>2018-07-08T11:00:37Z</time>
      </trkpt>
      <trkpt lat="45.95843" lon="5.59506">
        <ele>771.704</ele>
        <time>2018-07-08T11:00:42Z</time>
      </trkpt>
      <trkpt lat="45.95846" lon="5.595">
        <ele>771.65</ele>
        <time>2018-07-08T11:00:46Z</time>
      </trkpt>
      <trkpt lat="45.95858" lon="5.59486">
        <ele>771.554</ele>
        <time>2018-07-08T11:00:58Z</time>
      </trkpt>
      <trkpt lat="45.95864" lon="5.59481">
        <ele>771.328</ele>
        <time>2018-07-08T11:01:05Z</time>
      </trkpt>
      <trkpt lat="45.9587" lon="5.59474">
        <ele>770.411</ele>
        <time>2018-07-08T11:01:14Z</time>
      </trkpt>
      <trkpt lat="45.95872" lon="5.5947">
        <ele>770.031</ele>
        <time>2018-07-08T11:01:17Z</time>
      </trkpt>
      <trkpt lat="45.95872" lon="5.59464">
        <ele>769.099</ele>
        <time>2018-07-08T11:02:41Z</time>
      </trkpt>
      <trkpt lat="45.95878" lon="5.59464">
        <ele>769.994</ele>
        <time>2018-07-08T11:02:48Z</time>
      </trkpt>
      <trkpt lat="45.95887" lon="5.59462">
        <ele>770.375</ele>
        <time>2018-07-08T11:02:59Z</time>
      </trkpt>
      <trkpt lat="45.95895" lon="5.59462">
        <ele>770.505</ele>
        <time>2018-07-08T11:03:08Z</time>
      </trkpt>
      <trkpt lat="45.95907" lon="5.59458">
        <ele>771.51</ele>
        <time>2018-07-08T11:03:19Z</time>
      </trkpt>
      <trkpt lat="45.9591" lon="5.59458">
        <ele>771.527</ele>
        <time>2018-07-08T11:03:22Z</time>
      </trkpt>
      <trkpt lat="45.9592" lon="5.59452">
        <ele>771.519</ele>
        <time>2018-07-08T11:03:31Z</time>
      </trkpt>
      <trkpt lat="45.95926" lon="5.59449">
        <ele>772.003</ele>
        <time>2018-07-08T11:03:40Z</time>
      </trkpt>
      <trkpt lat="45.9593" lon="5.59448">
        <ele>771.892</ele>
        <time>2018-07-08T11:03:46Z</time>
      </trkpt>
      <trkpt lat="45.95945" lon="5.5945">
        <ele>771.854</ele>
        <time>2018-07-08T11:04:01Z</time>
      </trkpt>
      <trkpt lat="45.95959" lon="5.59444">
        <ele>771.711</ele>
        <time>2018-07-08T11:04:13Z</time>
      </trkpt>
      <trkpt lat="45.95962" lon="5.59443">
        <ele>771.665</ele>
        <time>2018-07-08T11:04:16Z</time>
      </trkpt>
      <trkpt lat="45.95965" lon="5.59444">
        <ele>772.075</ele>
        <time>2018-07-08T11:04:20Z</time>
      </trkpt>
      <trkpt lat="45.95974" lon="5.5944">
        <ele>772.391</ele>
        <time>2018-07-08T11:04:30Z</time>
      </trkpt>
      <trkpt lat="45.95976" lon="5.59437">
        <ele>771.929</ele>
        <time>2018-07-08T11:04:41Z</time>
      </trkpt>
      <trkpt lat="45.9598" lon="5.59425">
        <ele>771.137</ele>
        <time>2018-07-08T11:04:49Z</time>
      </trkpt>
      <trkpt lat="45.95986" lon="5.59417">
        <ele>771.586</ele>
        <time>2018-07-08T11:04:56Z</time>
      </trkpt>
      <trkpt lat="45.96002" lon="5.59406">
        <ele>770.831</ele>
        <time>2018-07-08T11:05:09Z</time>
      </trkpt>
      <trkpt lat="45.96008" lon="5.59403">
        <ele>770.598</ele>
        <time>2018-07-08T11:05:18Z</time>
      </trkpt>
      <trkpt lat="45.96017" lon="5.594">
        <ele>770.124</ele>
        <time>2018-07-08T11:05:27Z</time>
      </trkpt>
      <trkpt lat="45.96035" lon="5.59392">
        <ele>770.009</ele>
        <time>2018-07-08T11:05:44Z</time>
      </trkpt>
      <trkpt lat="45.96048" lon="5.59386">
        <ele>769.501</ele>
        <time>2018-07-08T11:05:56Z</time>
      </trkpt>
      <trkpt lat="45.96062" lon="5.5938">
        <ele>769.091</ele>
        <time>2018-07-08T11:06:11Z</time>
      </trkpt>
      <trkpt lat="45.96074" lon="5.59374">
        <ele>769.218</ele>
        <time>2018-07-08T11:06:23Z</time>
      </trkpt>
      <trkpt lat="45.96087" lon="5.59369">
        <ele>768.884</ele>
        <time>2018-07-08T11:06:37Z</time>
      </trkpt>
      <trkpt lat="45.96099" lon="5.59364">
        <ele>768.807</ele>
        <time>2018-07-08T11:06:49Z</time>
      </trkpt>
      <trkpt lat="45.96109" lon="5.59361">
        <ele>768.898</ele>
        <time>2018-07-08T11:07:00Z</time>
      </trkpt>
      <trkpt lat="45.9612" lon="5.59358">
        <ele>768.484</ele>
        <time>2018-07-08T11:07:12Z</time>
      </trkpt>
      <trkpt lat="45.96133" lon="5.59357">
        <ele>769.101</ele>
        <time>2018-07-08T11:07:24Z</time>
      </trkpt>
      <trkpt lat="45.96134" lon="5.59352">
        <ele>767.578</ele>
        <time>2018-07-08T11:07:31Z</time>
      </trkpt>
      <trkpt lat="45.96132" lon="5.5935">
        <ele>767.116</ele>
        <time>2018-07-08T11:07:37Z</time>
      </trkpt>
      <trkpt lat="45.96133" lon="5.59344">
        <ele>766.754</ele>
        <time>2018-07-08T11:07:57Z</time>
      </trkpt>
      <trkpt lat="45.96135" lon="5.59337">
        <ele>766.937</ele>
        <time>2018-07-08T11:08:04Z</time>
      </trkpt>
      <trkpt lat="45.9614" lon="5.59311">
        <ele>766.053</ele>
        <time>2018-07-08T11:08:18Z</time>
      </trkpt>
      <trkpt lat="45.9614" lon="5.59298">
        <ele>766.049</ele>
        <time>2018-07-08T11:08:27Z</time>
      </trkpt>
      <trkpt lat="45.96141" lon="5.59283">
        <ele>765.475</ele>
        <time>2018-07-08T11:08:37Z</time>
      </trkpt>
      <trkpt lat="45.96141" lon="5.59271">
        <ele>766.047</ele>
        <time>2018-07-08T11:08:47Z</time>
      </trkpt>
      <trkpt lat="45.96141" lon="5.59259">
        <ele>765.503</ele>
        <time>2018-07-08T11:08:57Z</time>
      </trkpt>
      <trkpt lat="45.96141" lon="5.59251">
        <ele>765.617</ele>
        <time>2018-07-08T11:09:04Z</time>
      </trkpt>
      <trkpt lat="45.96142" lon="5.59244">
        <ele>766.164</ele>
        <time>2018-07-08T11:09:18Z</time>
      </trkpt>
      <trkpt lat="45.96144" lon="5.59231">
        <ele>765.92</ele>
        <time>2018-07-08T11:09:27Z</time>
      </trkpt>
      <trkpt lat="45.96144" lon="5.59223">
        <ele>765.566</ele>
        <time>2018-07-08T11:09:33Z</time>
      </trkpt>
      <trkpt lat="45.96144" lon="5.59205">
        <ele>766.398</ele>
        <time>2018-07-08T11:10:43Z</time>
      </trkpt>
      <trkpt lat="45.96145" lon="5.59189">
        <ele>765.733</ele>
        <time>2018-07-08T11:11:21Z</time>
      </trkpt>
      <trkpt lat="45.96147" lon="5.59174">
        <ele>765.615</ele>
        <time>2018-07-08T11:11:30Z</time>
      </trkpt>
      <trkpt lat="45.96149" lon="5.59167">
        <ele>766.015</ele>
        <time>2018-07-08T11:11:39Z</time>
      </trkpt>
      <trkpt lat="45.96151" lon="5.59164">
        <ele>766.72</ele>
        <time>2018-07-08T11:12:18Z</time>
      </trkpt>
      <trkpt lat="45.96162" lon="5.59149">
        <ele>766.193</ele>
        <time>2018-07-08T11:12:31Z</time>
      </trkpt>
      <trkpt lat="45.96168" lon="5.59146">
        <ele>766.731</ele>
        <time>2018-07-08T11:12:37Z</time>
      </trkpt>
      <trkpt lat="45.96172" lon="5.59142">
        <ele>766.584</ele>
        <time>2018-07-08T11:12:45Z</time>
      </trkpt>
      <trkpt lat="45.96174" lon="5.59139">
        <ele>766.65</ele>
        <time>2018-07-08T11:12:54Z</time>
      </trkpt>
      <trkpt lat="45.96178" lon="5.59137">
        <ele>766.415</ele>
        <time>2018-07-08T11:13:43Z</time>
      </trkpt>
      <trkpt lat="45.96187" lon="5.5913">
        <ele>766.951</ele>
        <time>2018-07-08T11:13:52Z</time>
      </trkpt>
      <trkpt lat="45.96195" lon="5.59124">
        <ele>766.746</ele>
        <time>2018-07-08T11:14:02Z</time>
      </trkpt>
      <trkpt lat="45.962" lon="5.59121">
        <ele>766.678</ele>
        <time>2018-07-08T11:14:10Z</time>
      </trkpt>
      <trkpt lat="45.96208" lon="5.59116">
        <ele>766.634</ele>
        <time>2018-07-08T11:14:18Z</time>
      </trkpt>
      <trkpt lat="45.96213" lon="5.59113">
        <ele>766.969</ele>
        <time>2018-07-08T11:14:28Z</time>
      </trkpt>
      <trkpt lat="45.96217" lon="5.59112">
        <ele>766.438</ele>
        <time>2018-07-08T11:14:52Z</time>
      </trkpt>
      <trkpt lat="45.96224" lon="5.59107">
        <ele>766.622</ele>
        <time>2018-07-08T11:15:19Z</time>
      </trkpt>
      <trkpt lat="45.96235" lon="5.59099">
        <ele>767.042</ele>
        <time>2018-07-08T11:15:30Z</time>
      </trkpt>
      <trkpt lat="45.96248" lon="5.5909">
        <ele>767.512</ele>
        <time>2018-07-08T11:15:43Z</time>
      </trkpt>
      <trkpt lat="45.96259" lon="5.5908">
        <ele>767.718</ele>
        <time>2018-07-08T11:15:54Z</time>
      </trkpt>
      <trkpt lat="45.96267" lon="5.5907">
        <ele>767.039</ele>
        <time>2018-07-08T11:16:05Z</time>
      </trkpt>
      <trkpt lat="45.96273" lon="5.59054">
        <ele>767.211</ele>
        <time>2018-07-08T11:16:18Z</time>
      </trkpt>
      <trkpt lat="45.96277" lon="5.59048">
        <ele>767.542</ele>
        <time>2018-07-08T11:16:27Z</time>
      </trkpt>
      <trkpt lat="45.9628" lon="5.5904">
        <ele>767.411</ele>
        <time>2018-07-08T11:17:27Z</time>
      </trkpt>
      <trkpt lat="45.96287" lon="5.5903">
        <ele>767.701</ele>
        <time>2018-07-08T11:17:36Z</time>
      </trkpt>
      <trkpt lat="45.963" lon="5.59024">
        <ele>767.489</ele>
        <time>2018-07-08T11:17:46Z</time>
      </trkpt>
      <trkpt lat="45.96313" lon="5.59014">
        <ele>767.589</ele>
        <time>2018-07-08T11:17:58Z</time>
      </trkpt>
      <trkpt lat="45.96315" lon="5.59012">
        <ele>767.5</ele>
        <time>2018-07-08T11:18:07Z</time>
      </trkpt>
      <trkpt lat="45.96318" lon="5.5901">
        <ele>767.75</ele>
        <time>2018-07-08T11:18:50Z</time>
      </trkpt>
      <trkpt lat="45.96322" lon="5.59007">
        <ele>767.937</ele>
        <time>2018-07-08T11:19:14Z</time>
      </trkpt>
      <trkpt lat="45.96324" lon="5.59007">
        <ele>768.158</ele>
        <time>2018-07-08T11:19:47Z</time>
      </trkpt>
      <trkpt lat="45.96335" lon="5.59008">
        <ele>768.086</ele>
        <time>2018-07-08T11:20:11Z</time>
      </trkpt>
      <trkpt lat="45.9635" lon="5.59005">
        <ele>767.704</ele>
        <time>2018-07-08T11:20:22Z</time>
      </trkpt>
      <trkpt lat="45.96354" lon="5.59003">
        <ele>768.034</ele>
        <time>2018-07-08T11:20:29Z</time>
      </trkpt>
      <trkpt lat="45.96356" lon="5.59004">
        <ele>768.149</ele>
        <time>2018-07-08T11:21:13Z</time>
      </trkpt>
      <trkpt lat="45.96361" lon="5.59001">
        <ele>767.235</ele>
        <time>2018-07-08T11:21:22Z</time>
      </trkpt>
      <trkpt lat="45.96368" lon="5.59001">
        <ele>768.46</ele>
        <time>2018-07-08T11:22:01Z</time>
      </trkpt>
      <trkpt lat="45.96383" lon="5.58992">
        <ele>768.344</ele>
        <time>2018-07-08T11:22:14Z</time>
      </trkpt>
      <trkpt lat="45.96387" lon="5.58986">
        <ele>768.346</ele>
        <time>2018-07-08T11:22:19Z</time>
      </trkpt>
      <trkpt lat="45.96391" lon="5.58977">
        <ele>768.371</ele>
        <time>2018-07-08T11:22:29Z</time>
      </trkpt>
      <trkpt lat="45.96395" lon="5.58974">
        <ele>768.811</ele>
        <time>2018-07-08T11:23:06Z</time>
      </trkpt>
      <trkpt lat="45.96404" lon="5.58959">
        <ele>768.634</ele>
        <time>2018-07-08T11:23:19Z</time>
      </trkpt>
      <trkpt lat="45.96409" lon="5.58952">
        <ele>768.978</ele>
        <time>2018-07-08T11:23:31Z</time>
      </trkpt>
      <trkpt lat="45.96416" lon="5.58938">
        <ele>769.194</ele>
        <time>2018-07-08T11:23:41Z</time>
      </trkpt>
      <trkpt lat="45.9642" lon="5.58933">
        <ele>768.876</ele>
        <time>2018-07-08T11:23:50Z</time>
      </trkpt>
      <trkpt lat="45.96424" lon="5.58928">
        <ele>769.327</ele>
        <time>2018-07-08T11:23:56Z</time>
      </trkpt>
      <trkpt lat="45.96431" lon="5.58916">
        <ele>769.537</ele>
        <time>2018-07-08T11:24:04Z</time>
      </trkpt>
      <trkpt lat="45.96434" lon="5.58905">
        <ele>769.347</ele>
        <time>2018-07-08T11:24:12Z</time>
      </trkpt>
      <trkpt lat="45.96444" lon="5.58896">
        <ele>769.198</ele>
        <time>2018-07-08T11:24:22Z</time>
      </trkpt>
      <trkpt lat="45.96445" lon="5.58893">
        <ele>769.051</ele>
        <time>2018-07-08T11:24:28Z</time>
      </trkpt>
      <trkpt lat="45.96448" lon="5.58876">
        <ele>769.134</ele>
        <time>2018-07-08T11:24:39Z</time>
      </trkpt>
      <trkpt lat="45.96449" lon="5.58857">
        <ele>769.194</ele>
        <time>2018-07-08T11:24:50Z</time>
      </trkpt>
      <trkpt lat="45.96449" lon="5.58848">
        <ele>768.999</ele>
        <time>2018-07-08T11:24:55Z</time>
      </trkpt>
      <trkpt lat="45.9645" lon="5.58826">
        <ele>769.363</ele>
        <time>2018-07-08T11:25:07Z</time>
      </trkpt>
      <trkpt lat="45.96451" lon="5.58798">
        <ele>769.102</ele>
        <time>2018-07-08T11:25:23Z</time>
      </trkpt>
      <trkpt lat="45.96452" lon="5.58781">
        <ele>768.802</ele>
        <time>2018-07-08T11:25:34Z</time>
      </trkpt>
      <trkpt lat="45.96456" lon="5.58754">
        <ele>768.484</ele>
        <time>2018-07-08T11:25:49Z</time>
      </trkpt>
      <trkpt lat="45.96457" lon="5.5873">
        <ele>768.592</ele>
        <time>2018-07-08T11:26:02Z</time>
      </trkpt>
      <trkpt lat="45.96457" lon="5.58708">
        <ele>768.254</ele>
        <time>2018-07-08T11:26:14Z</time>
      </trkpt>
      <trkpt lat="45.96455" lon="5.58694">
        <ele>768.473</ele>
        <time>2018-07-08T11:26:23Z</time>
      </trkpt>
      <trkpt lat="45.96453" lon="5.58668">
        <ele>768.319</ele>
        <time>2018-07-08T11:26:38Z</time>
      </trkpt>
      <trkpt lat="45.96452" lon="5.58658">
        <ele>768.362</ele>
        <time>2018-07-08T11:26:45Z</time>
      </trkpt>
      <trkpt lat="45.96452" lon="5.58644">
        <ele>768.028</ele>
        <time>2018-07-08T11:26:53Z</time>
      </trkpt>
      <trkpt lat="45.96453" lon="5.5862">
        <ele>768.418</ele>
        <time>2018-07-08T11:27:05Z</time>
      </trkpt>
      <trkpt lat="45.96454" lon="5.58606">
        <ele>768.262</ele>
        <time>2018-07-08T11:27:14Z</time>
      </trkpt>
      <trkpt lat="45.96455" lon="5.5859">
        <ele>767.326</ele>
        <time>2018-07-08T11:27:24Z</time>
      </trkpt>
      <trkpt lat="45.96455" lon="5.58587">
        <ele>768.292</ele>
        <time>2018-07-08T11:27:39Z</time>
      </trkpt>
      <trkpt lat="45.96451" lon="5.58583">
        <ele>767.324</ele>
        <time>2018-07-08T11:27:46Z</time>
      </trkpt>
      <trkpt lat="45.96444" lon="5.58568">
        <ele>767.244</ele>
        <time>2018-07-08T11:27:58Z</time>
      </trkpt>
      <trkpt lat="45.96439" lon="5.58562">
        <ele>767.345</ele>
        <time>2018-07-08T11:28:10Z</time>
      </trkpt>
      <trkpt lat="45.96432" lon="5.5855">
        <ele>767.209</ele>
        <time>2018-07-08T11:28:21Z</time>
      </trkpt>
      <trkpt lat="45.96425" lon="5.58538">
        <ele>766.8</ele>
        <time>2018-07-08T11:28:29Z</time>
      </trkpt>
      <trkpt lat="45.96415" lon="5.58518">
        <ele>766.105</ele>
        <time>2018-07-08T11:28:44Z</time>
      </trkpt>
      <trkpt lat="45.96404" lon="5.58505">
        <ele>766.455</ele>
        <time>2018-07-08T11:28:57Z</time>
      </trkpt>
      <trkpt lat="45.96394" lon="5.58494">
        <ele>766.096</ele>
        <time>2018-07-08T11:29:08Z</time>
      </trkpt>
      <trkpt lat="45.96389" lon="5.58486">
        <ele>765.973</ele>
        <time>2018-07-08T11:29:15Z</time>
      </trkpt>
      <trkpt lat="45.96385" lon="5.58477">
        <ele>766.549</ele>
        <time>2018-07-08T11:29:24Z</time>
      </trkpt>
      <trkpt lat="45.96381" lon="5.58469">
        <ele>765.965</ele>
        <time>2018-07-08T11:29:32Z</time>
      </trkpt>
      <trkpt lat="45.96381" lon="5.58463">
        <ele>766.164</ele>
        <time>2018-07-08T11:29:41Z</time>
      </trkpt>
      <trkpt lat="45.96381" lon="5.5846">
        <ele>766.011</ele>
        <time>2018-07-08T11:29:43Z</time>
      </trkpt>
      <trkpt lat="45.96387" lon="5.58452">
        <ele>766.198</ele>
        <time>2018-07-08T11:29:51Z</time>
      </trkpt>
      <trkpt lat="45.96392" lon="5.58447">
        <ele>766.693</ele>
        <time>2018-07-08T11:29:59Z</time>
      </trkpt>
      <trkpt lat="45.96403" lon="5.58439">
        <ele>767.085</ele>
        <time>2018-07-08T11:30:10Z</time>
      </trkpt>
      <trkpt lat="45.96406" lon="5.58435">
        <ele>767.131</ele>
        <time>2018-07-08T11:30:18Z</time>
      </trkpt>
      <trkpt lat="45.96409" lon="5.58427">
        <ele>767.076</ele>
        <time>2018-07-08T11:30:27Z</time>
      </trkpt>
      <trkpt lat="45.96414" lon="5.58416">
        <ele>767.121</ele>
        <time>2018-07-08T11:30:35Z</time>
      </trkpt>
      <trkpt lat="45.96421" lon="5.5841">
        <ele>767.132</ele>
        <time>2018-07-08T11:30:43Z</time>
      </trkpt>
      <trkpt lat="45.96429" lon="5.58408">
        <ele>767.709</ele>
        <time>2018-07-08T11:30:51Z</time>
      </trkpt>
      <trkpt lat="45.96441" lon="5.58405">
        <ele>767.322</ele>
        <time>2018-07-08T11:31:01Z</time>
      </trkpt>
      <trkpt lat="45.96453" lon="5.584">
        <ele>767.97</ele>
        <time>2018-07-08T11:31:12Z</time>
      </trkpt>
      <trkpt lat="45.96464" lon="5.58395">
        <ele>768.113</ele>
        <time>2018-07-08T11:31:23Z</time>
      </trkpt>
      <trkpt lat="45.96468" lon="5.58395">
        <ele>768.128</ele>
        <time>2018-07-08T11:31:29Z</time>
      </trkpt>
      <trkpt lat="45.96472" lon="5.5839">
        <ele>767.977</ele>
        <time>2018-07-08T11:31:34Z</time>
      </trkpt>
      <trkpt lat="45.96485" lon="5.58385">
        <ele>767.328</ele>
        <time>2018-07-08T11:31:44Z</time>
      </trkpt>
      <trkpt lat="45.9649" lon="5.5838">
        <ele>767.057</ele>
        <time>2018-07-08T11:31:49Z</time>
      </trkpt>
      <trkpt lat="45.96498" lon="5.58371">
        <ele>766.76</ele>
        <time>2018-07-08T11:31:59Z</time>
      </trkpt>
      <trkpt lat="45.96503" lon="5.58361">
        <ele>766.417</ele>
        <time>2018-07-08T11:32:45Z</time>
      </trkpt>
    </trkseg>
  </trk>
</gpx>